createdAt,value
2022-12-13T00:01:25.484Z,17.35
2022-12-13T00:06:31.345Z,17.33
2022-12-13T00:11:35.499Z,17.31
2022-12-13T00:16:39.008Z,17.28
2022-12-13T00:21:42.421Z,17.26
2022-12-13T00:26:46.143Z,17.26
2022-12-13T00:32:04.670Z,17.26
2022-12-13T00:37:08.157Z,17.25
2022-12-13T00:42:11.789Z,17.24
2022-12-13T00:47:15.228Z,17.26
2022-12-13T00:52:18.591Z,17.26
2022-12-13T00:57:21.996Z,17.23
2022-12-13T01:02:31.171Z,17.22
2022-12-13T01:07:42.821Z,17.15
2022-12-13T01:12:46.066Z,17.05
2022-12-13T01:17:49.188Z,16.96
2022-12-13T01:22:52.531Z,16.95
2022-12-13T01:27:57.065Z,16.97
2022-12-13T01:33:00.405Z,16.97
2022-12-13T01:38:15.478Z,16.95
2022-12-13T01:43:19.459Z,16.93
2022-12-13T01:48:28.398Z,16.86
2022-12-13T01:53:35.837Z,16.84
2022-12-13T01:58:41.069Z,16.89
2022-12-13T02:03:46.131Z,16.91
2022-12-13T02:08:50.215Z,17.01
2022-12-13T02:13:54.103Z,17.16
2022-12-13T02:19:34.537Z,17.27
2022-12-13T02:24:49.808Z,17.32
2022-12-13T02:30:23.194Z,17.28
2022-12-13T02:35:47.316Z,17.17
2022-12-13T02:41:07.381Z,17.06
2022-12-13T02:46:13.028Z,16.99
2022-12-13T02:51:18.084Z,16.98
2022-12-13T02:56:21.510Z,16.96
2022-12-13T03:02:09.813Z,16.91
2022-12-13T03:07:34.031Z,16.30
2022-12-13T03:13:04.447Z,15.63
2022-12-13T03:18:13.636Z,15.30
2022-12-13T03:23:20.429Z,14.92
2022-12-13T03:28:24.297Z,14.65
2022-12-13T03:33:27.703Z,14.51
2022-12-13T03:38:31.354Z,14.39
2022-12-13T03:43:34.857Z,14.29
2022-12-13T03:48:38.415Z,14.39
2022-12-13T03:53:41.910Z,14.56
2022-12-13T03:58:46.531Z,14.75
2022-12-13T04:03:50.823Z,14.94
2022-12-13T04:08:54.385Z,15.11
2022-12-13T04:13:57.877Z,15.21
2022-12-13T04:19:01.379Z,15.25
2022-12-13T04:24:05.950Z,15.24
2022-12-13T04:29:10.546Z,15.28
2022-12-13T04:34:13.793Z,15.34
2022-12-13T04:39:21.964Z,15.45
2022-12-13T04:44:29.068Z,15.54
2022-12-13T04:49:34.229Z,15.74
2022-12-13T04:54:37.818Z,15.88
2022-12-13T04:59:41.484Z,15.88
2022-12-13T05:04:54.140Z,15.95
2022-12-13T05:10:32.094Z,15.96
2022-12-13T05:15:37.115Z,15.95
2022-12-13T05:20:40.443Z,16.03
2022-12-13T05:25:43.879Z,16.14
2022-12-13T05:30:49.505Z,16.23
2022-12-13T05:35:57.800Z,16.34
2022-12-13T05:41:05.155Z,16.45
2022-12-13T05:46:09.258Z,16.67
2022-12-13T05:51:14.713Z,17.01
2022-12-13T05:56:22.830Z,17.38
2022-12-13T06:01:27.017Z,17.73
2022-12-13T06:06:30.447Z,17.83
2022-12-13T06:11:34.054Z,17.81
2022-12-13T06:16:37.477Z,17.84
2022-12-13T06:21:45.773Z,17.84
2022-12-13T06:26:52.409Z,17.84
2022-12-13T06:32:02.500Z,18.01
2022-12-13T06:37:09.393Z,18.18
2022-12-13T06:42:22.318Z,18.34
2022-12-13T06:47:30.968Z,18.46
2022-12-13T06:52:36.523Z,18.37
2022-12-13T06:57:40.611Z,18.38
2022-12-13T07:02:52.572Z,18.42
2022-12-13T07:07:56.802Z,18.46
2022-12-13T07:13:00.239Z,18.36
2022-12-13T07:18:04.040Z,18.20
2022-12-13T07:23:07.803Z,18.06
2022-12-13T07:28:11.201Z,18.11
2022-12-13T07:33:21.960Z,18.25
2022-12-13T07:38:26.145Z,18.43
2022-12-13T07:43:29.630Z,18.55
2022-12-13T07:48:42.776Z,18.59
2022-12-13T07:53:59.604Z,18.64
2022-12-13T07:59:11.400Z,18.75
2022-12-13T08:04:27.746Z,18.88
2022-12-13T08:09:36.246Z,18.97
2022-12-13T08:14:39.657Z,19.04
2022-12-13T08:19:44.868Z,19.12
2022-12-13T08:24:48.954Z,19.20
2022-12-13T08:29:52.349Z,19.25
2022-12-13T08:34:58.051Z,19.31
2022-12-13T08:40:02.480Z,19.37
2022-12-13T08:45:07.164Z,19.45
2022-12-13T08:50:10.563Z,19.52
2022-12-13T08:55:15.915Z,19.63
2022-12-13T09:00:20.536Z,19.68
2022-12-13T09:05:34.042Z,19.73
2022-12-13T09:10:38.851Z,19.72
2022-12-13T09:15:46.243Z,19.76
2022-12-13T09:20:51.442Z,19.81
2022-12-13T09:26:05.491Z,19.88
2022-12-13T09:31:12.412Z,19.91
2022-12-13T09:36:26.957Z,19.90
2022-12-13T09:42:00.614Z,19.93
2022-12-13T09:47:14.293Z,20.00
2022-12-13T09:52:21.800Z,20.02
2022-12-13T09:57:31.187Z,20.09
2022-12-13T10:02:49.752Z,20.18
2022-12-13T10:07:55.986Z,20.33
2022-12-13T10:13:14.483Z,20.51
2022-12-13T10:18:41.816Z,20.71
2022-12-13T10:24:23.186Z,20.84
2022-12-13T10:29:10.512Z,20.97
2022-12-13T10:34:35.628Z,21.00
2022-12-13T10:39:43.616Z,20.86
2022-12-13T10:44:47.465Z,20.79
2022-12-13T10:49:58.904Z,20.67
2022-12-13T10:55:23.064Z,20.52
2022-12-13T11:00:32.346Z,20.48
2022-12-13T11:05:37.484Z,20.42
2022-12-13T11:10:41.061Z,20.31
2022-12-13T11:15:44.876Z,20.27
2022-12-13T11:20:58.009Z,20.23
2022-12-13T11:26:09.157Z,20.17
2022-12-13T11:31:24.417Z,20.13
2022-12-13T11:36:46.505Z,20.05
2022-12-13T11:41:55.112Z,20.02
2022-12-13T11:47:01.254Z,19.99
2022-12-13T11:52:15.612Z,19.98
2022-12-13T11:57:49.164Z,19.97
2022-12-13T12:02:59.383Z,19.92
2022-12-13T12:08:33.314Z,19.86
2022-12-13T12:13:53.784Z,19.83
2022-12-13T12:19:01.974Z,19.80
2022-12-13T12:24:17.564Z,19.80
2022-12-13T12:29:22.248Z,19.80
2022-12-13T12:34:44.254Z,19.79
2022-12-13T12:40:23.556Z,19.76
2022-12-13T12:45:56.948Z,19.75
2022-12-13T12:51:12.982Z,19.72
2022-12-13T12:56:43.128Z,19.69
2022-12-13T13:01:57.360Z,19.66
2022-12-13T13:07:06.617Z,19.63
2022-12-13T13:12:29.001Z,19.58
2022-12-13T13:17:34.045Z,19.54
2022-12-13T13:22:43.466Z,19.50
2022-12-13T13:27:50.685Z,19.45
2022-12-13T13:32:58.514Z,19.45
2022-12-13T13:38:05.518Z,19.41
2022-12-13T13:43:12.298Z,19.38
2022-12-13T13:48:15.830Z,19.32
2022-12-13T13:53:25.075Z,19.29
2022-12-13T13:59:14.131Z,19.21
2022-12-13T14:04:47.803Z,19.11
2022-12-13T14:10:12.517Z,18.99
2022-12-13T14:15:25.432Z,18.88
2022-12-13T14:20:56.435Z,18.76
2022-12-13T14:26:24.359Z,18.63
2022-12-13T14:31:36.931Z,18.50
2022-12-13T14:37:06.876Z,18.37
2022-12-13T14:42:48.121Z,18.28
2022-12-13T14:47:54.473Z,18.18
2022-12-13T14:52:58.151Z,18.10
2022-12-13T14:58:03.260Z,18.03
2022-12-13T15:03:07.994Z,17.96
2022-12-13T15:08:15.829Z,17.90
2022-12-13T15:13:29.351Z,17.85
2022-12-13T15:18:34.857Z,17.77
2022-12-13T15:23:49.240Z,17.71
2022-12-13T15:29:10.387Z,17.65
2022-12-13T15:34:30.797Z,17.60
2022-12-13T15:39:40.175Z,17.53
2022-12-13T15:44:49.504Z,17.50
2022-12-13T15:49:52.899Z,17.46
2022-12-13T15:55:00.287Z,17.43
2022-12-13T16:00:19.021Z,17.39
2022-12-13T16:05:30.816Z,17.39
2022-12-13T16:10:35.126Z,17.39
2022-12-13T16:15:51.804Z,17.35
2022-12-13T16:21:15.943Z,17.30
2022-12-13T16:26:48.871Z,17.26
2022-12-13T16:32:08.247Z,17.21
2022-12-13T16:37:26.816Z,17.20
2022-12-13T16:42:31.618Z,17.17
2022-12-13T16:47:41.726Z,17.13
2022-12-13T16:52:54.581Z,17.11
2022-12-13T16:58:15.720Z,17.05
2022-12-13T17:03:19.232Z,17.02
2022-12-13T17:08:23.781Z,17.00
2022-12-13T17:13:28.489Z,16.97
2022-12-13T17:18:33.518Z,16.96
2022-12-13T17:23:41.501Z,16.96
2022-12-13T17:28:46.111Z,16.93
2022-12-13T17:33:49.499Z,16.92
2022-12-13T17:38:54.233Z,16.89
2022-12-13T17:44:00.635Z,16.84
2022-12-13T17:49:04.141Z,16.86
2022-12-13T17:54:08.971Z,16.82
2022-12-13T17:59:14.421Z,16.82
2022-12-13T18:04:19.349Z,16.82
2022-12-13T18:09:22.632Z,16.81
2022-12-13T18:14:26.984Z,16.80
2022-12-13T18:19:30.461Z,16.80
2022-12-13T18:24:33.776Z,16.78
2022-12-13T18:29:37.312Z,16.74
2022-12-13T18:34:40.634Z,16.71
2022-12-13T18:39:43.715Z,16.66
2022-12-13T18:44:58.431Z,16.64
2022-12-13T18:50:02.130Z,16.63
2022-12-13T18:55:06.704Z,16.60
2022-12-13T19:00:10.426Z,16.58
2022-12-13T19:05:13.932Z,16.56
2022-12-13T19:10:17.817Z,16.52
2022-12-13T19:15:21.397Z,16.49
2022-12-13T19:20:25.400Z,16.46
2022-12-13T19:25:29.473Z,16.46
2022-12-13T19:30:35.876Z,16.50
2022-12-13T19:35:49.857Z,16.51
2022-12-13T19:40:53.474Z,16.52
2022-12-13T19:45:57.005Z,16.56
2022-12-13T19:51:07.322Z,16.57
2022-12-13T19:56:14.511Z,16.62
2022-12-13T20:01:18.780Z,16.64
2022-12-13T20:06:23.179Z,16.67
2022-12-13T20:11:26.645Z,16.70
2022-12-13T20:16:29.963Z,16.79
2022-12-13T20:21:33.912Z,16.87
2022-12-13T20:26:38.738Z,16.93
2022-12-13T20:31:42.828Z,16.96
2022-12-13T20:36:52.114Z,16.98
2022-12-13T20:41:55.617Z,16.99
2022-12-13T20:47:04.322Z,17.05
2022-12-13T20:52:07.741Z,17.04
2022-12-13T20:57:11.499Z,16.97
2022-12-13T21:02:15.053Z,16.93
2022-12-13T21:07:18.584Z,16.90
2022-12-13T21:12:32.645Z,16.83
2022-12-13T21:17:48.158Z,16.82
2022-12-13T21:22:51.575Z,16.83
2022-12-13T21:27:55.317Z,16.86
2022-12-13T21:32:58.405Z,16.88
2022-12-13T21:38:05.317Z,16.95
2022-12-13T21:43:08.887Z,17.01
2022-12-13T21:48:12.491Z,17.05
2022-12-13T21:53:16.216Z,17.09
2022-12-13T21:58:23.766Z,17.11
2022-12-13T22:03:27.415Z,17.10
2022-12-13T22:08:30.750Z,17.05
2022-12-13T22:13:34.873Z,17.03
2022-12-13T22:18:38.341Z,16.97
2022-12-13T22:23:41.730Z,16.95
2022-12-13T22:28:45.595Z,16.93
2022-12-13T22:33:49.270Z,16.89
2022-12-13T22:38:54.964Z,16.89
2022-12-13T22:43:59.199Z,16.89
2022-12-13T22:49:02.494Z,16.89
2022-12-13T22:54:05.958Z,16.88
2022-12-13T22:59:09.154Z,16.91
2022-12-13T23:04:12.579Z,16.95
2022-12-13T23:09:15.818Z,17.01
2022-12-13T23:14:28.173Z,17.05
2022-12-13T23:19:41.662Z,17.04
2022-12-13T23:24:54.576Z,16.98
2022-12-13T23:29:57.889Z,16.98
2022-12-13T23:35:01.388Z,16.97
2022-12-13T23:40:07.218Z,16.97
2022-12-13T23:45:10.662Z,17.02
2022-12-13T23:50:14.184Z,17.03
2022-12-13T23:55:17.939Z,17.03
